createdAt,value
2022-08-02T00:01:18.844Z,2.90
2022-08-02T00:03:45.463Z,3.13
2022-08-02T00:06:12.285Z,3.00
2022-08-02T00:08:38.794Z,3.17
2022-08-02T00:11:06.049Z,3.07
2022-08-02T00:13:32.678Z,2.53
2022-08-02T00:15:59.417Z,2.70
2022-08-02T00:18:25.934Z,3.30
2022-08-02T00:20:52.529Z,2.53
2022-08-02T00:23:19.122Z,3.13
2022-08-02T00:25:55.095Z,2.70
2022-08-02T00:28:27.452Z,3.23
2022-08-02T00:30:55.179Z,2.77
2022-08-02T00:34:09.137Z,2.93
2022-08-02T00:36:08.275Z,3.40
2022-08-02T00:38:35.042Z,3.33
2022-08-02T00:41:01.922Z,3.23
2022-08-02T00:43:28.588Z,3.40
2022-08-02T00:46:02.229Z,2.90
2022-08-02T00:48:30.638Z,3.00
2022-08-02T00:50:59.024Z,2.80
2022-08-02T00:53:25.588Z,3.13
2022-08-02T00:55:52.188Z,2.87
2022-08-02T00:58:19.159Z,2.87
2022-08-02T01:00:45.855Z,2.80
2022-08-02T01:03:12.394Z,3.03
2022-08-02T01:06:09.167Z,2.90
2022-08-02T01:08:29.324Z,3.00
2022-08-02T01:10:58.476Z,3.07
2022-08-02T01:13:27.666Z,3.00
2022-08-02T01:16:02.132Z,2.80
2022-08-02T01:18:35.300Z,2.80
2022-08-02T01:21:35.517Z,2.87
2022-08-02T01:24:42.680Z,2.97
2022-08-02T01:27:33.925Z,2.93
2022-08-02T01:30:02.849Z,3.23
2022-08-02T01:32:37.716Z,3.40
2022-08-02T01:35:17.531Z,3.20
2022-08-02T01:38:22.608Z,3.40
2022-08-02T01:40:51.639Z,3.00
2022-08-02T01:43:21.429Z,3.00
2022-08-02T01:45:48.498Z,3.53
2022-08-02T01:48:16.812Z,3.27
2022-08-02T01:50:44.991Z,3.17
2022-08-02T01:53:12.857Z,3.40
2022-08-02T01:55:57.640Z,3.27
2022-08-02T01:58:29.963Z,3.37
2022-08-02T02:00:58.271Z,3.47
2022-08-02T02:03:26.756Z,3.07
2022-08-02T02:05:57.686Z,3.37
2022-08-02T02:08:29.043Z,3.80
2022-08-02T02:10:57.636Z,3.27
2022-08-02T02:13:45.286Z,3.57
2022-08-02T02:16:14.149Z,3.30
2022-08-02T02:18:43.876Z,3.60
2022-08-02T02:21:12.275Z,3.63
2022-08-02T02:23:39.072Z,3.77
2022-08-02T02:26:11.260Z,3.50
2022-08-02T02:28:39.883Z,3.70
2022-08-02T02:31:15.926Z,3.70
2022-08-02T02:34:10.461Z,3.80
2022-08-02T02:36:40.086Z,3.80
2022-08-02T02:39:13.374Z,3.60
2022-08-02T02:41:42.280Z,3.87
2022-08-02T02:44:13.385Z,3.93
2022-08-02T02:46:40.964Z,3.90
2022-08-02T02:49:11.146Z,3.73
2022-08-02T02:51:40.737Z,3.47
2022-08-02T02:54:30.361Z,3.60
2022-08-02T02:56:58.267Z,3.57
2022-08-02T02:59:25.205Z,3.77
2022-08-02T03:01:56.605Z,3.47
2022-08-02T03:04:25.248Z,3.73
2022-08-02T03:06:52.017Z,3.33
2022-08-02T03:09:18.813Z,3.73
2022-08-02T03:11:46.011Z,3.27
2022-08-02T03:14:13.528Z,2.83
2022-08-02T03:16:51.659Z,3.20
2022-08-02T03:19:19.677Z,3.80
2022-08-02T03:21:48.461Z,2.87
2022-08-02T03:24:28.365Z,3.73
2022-08-02T03:26:55.400Z,3.17
2022-08-02T03:29:21.942Z,4.00
2022-08-02T03:31:48.517Z,3.30
2022-08-02T03:34:15.343Z,3.53
2022-08-02T03:36:43.347Z,3.23
2022-08-02T03:39:12.724Z,4.17
2022-08-02T03:41:39.732Z,3.50
2022-08-02T03:44:07.885Z,3.53
2022-08-02T03:46:39.219Z,3.47
2022-08-02T03:49:08.526Z,3.50
2022-08-02T03:51:38.129Z,3.43
2022-08-02T03:54:05.442Z,3.60
2022-08-02T03:56:32.229Z,3.40
2022-08-02T03:59:13.300Z,3.93
2022-08-02T04:01:40.430Z,3.63
2022-08-02T04:04:07.406Z,3.53
2022-08-02T04:06:34.674Z,3.70
2022-08-02T04:09:01.335Z,3.60
2022-08-02T04:11:33.738Z,3.70
2022-08-02T04:14:07.699Z,3.73
2022-08-02T04:16:50.707Z,3.60
2022-08-02T04:19:21.882Z,3.73
2022-08-02T04:21:52.555Z,3.67
2022-08-02T04:24:32.355Z,3.63
2022-08-02T04:27:19.407Z,3.47
2022-08-02T04:29:49.613Z,3.50
2022-08-02T04:32:17.698Z,3.53
2022-08-02T04:35:05.043Z,3.77
2022-08-02T04:37:32.587Z,3.47
2022-08-02T04:39:59.147Z,3.97
2022-08-02T04:42:26.817Z,4.27
2022-08-02T04:44:53.822Z,4.20
2022-08-02T04:47:40.013Z,4.47
2022-08-02T04:50:08.654Z,4.33
2022-08-02T04:52:35.140Z,4.47
2022-08-02T04:55:01.775Z,4.53
2022-08-02T04:57:52.722Z,4.83
2022-08-02T05:00:20.037Z,5.13
2022-08-02T05:02:47.275Z,4.63
2022-08-02T05:05:14.059Z,5.40
2022-08-02T05:07:40.707Z,5.10
2022-08-02T05:10:07.556Z,4.30
2022-08-02T05:12:34.187Z,4.87
2022-08-02T05:15:00.886Z,5.70
2022-08-02T05:17:27.459Z,6.37
2022-08-02T05:19:53.999Z,6.20
2022-08-02T05:22:20.516Z,6.07
2022-08-02T05:24:47.139Z,6.57
2022-08-02T05:27:16.497Z,6.73
2022-08-02T05:29:53.001Z,6.53
2022-08-02T05:32:20.928Z,6.97
2022-08-02T05:34:50.482Z,6.47
2022-08-02T05:37:17.264Z,6.83
2022-08-02T05:39:55.862Z,6.63
2022-08-02T05:42:23.731Z,6.10
2022-08-02T05:44:50.423Z,6.23
2022-08-02T05:47:17.110Z,5.93
2022-08-02T05:49:43.799Z,6.30
2022-08-02T05:52:18.771Z,5.60
2022-08-02T05:55:10.206Z,5.00
2022-08-02T05:58:00.616Z,5.20
2022-08-02T06:00:31.623Z,4.53
2022-08-02T06:03:16.985Z,4.30
2022-08-02T06:05:52.356Z,3.90
2022-08-02T06:08:20.914Z,4.23
2022-08-02T06:10:48.654Z,4.17
2022-08-02T06:13:16.874Z,3.67
2022-08-02T06:15:53.319Z,3.77
2022-08-02T06:18:28.373Z,3.73
2022-08-02T06:22:32.371Z,3.77
2022-08-02T06:23:57.692Z,3.70
2022-08-02T06:26:27.333Z,3.43
2022-08-02T06:28:55.448Z,3.43
2022-08-02T06:31:22.154Z,3.63
2022-08-02T06:33:48.696Z,3.80
2022-08-02T06:36:50.769Z,3.97
2022-08-02T06:39:28.488Z,3.13
2022-08-02T06:42:02.894Z,3.20
2022-08-02T06:44:48.743Z,3.00
2022-08-02T06:47:16.813Z,2.70
2022-08-02T06:49:52.510Z,2.40
2022-08-02T06:52:30.979Z,2.77
2022-08-02T06:55:03.272Z,2.17
2022-08-02T06:57:30.728Z,2.53
2022-08-02T06:59:58.619Z,2.47
2022-08-02T07:02:25.406Z,2.40
2022-08-02T07:04:52.014Z,2.50
2022-08-02T07:07:18.806Z,2.10
2022-08-02T07:10:00.035Z,2.20
2022-08-02T07:12:30.667Z,2.27
2022-08-02T07:14:58.690Z,2.00
2022-08-02T07:17:25.552Z,1.80
2022-08-02T07:19:52.058Z,1.80
2022-08-02T07:22:24.312Z,2.07
2022-08-02T07:24:51.466Z,2.00
2022-08-02T07:27:18.439Z,2.23
2022-08-02T07:29:47.144Z,2.60
2022-08-02T07:32:18.814Z,2.00
2022-08-02T07:34:50.929Z,1.93
2022-08-02T07:37:35.427Z,2.13
2022-08-02T07:40:11.887Z,2.00
2022-08-02T07:42:40.439Z,2.20
2022-08-02T07:45:07.256Z,1.90
2022-08-02T07:47:37.917Z,2.20
2022-08-02T07:50:06.302Z,1.97
2022-08-02T07:52:33.024Z,1.90
2022-08-02T07:54:59.562Z,1.87
2022-08-02T07:57:26.062Z,2.20
2022-08-02T07:59:52.732Z,2.30
2022-08-02T08:02:19.218Z,2.20
2022-08-02T08:04:45.784Z,2.23
2022-08-02T08:07:12.272Z,2.13
2022-08-02T08:09:42.253Z,2.47
2022-08-02T08:12:10.768Z,2.23
2022-08-02T08:14:38.693Z,2.40
2022-08-02T08:17:08.546Z,1.83
2022-08-02T08:19:50.958Z,1.93
2022-08-02T08:22:21.527Z,2.47
2022-08-02T08:24:49.131Z,1.87
2022-08-02T08:27:16.907Z,2.07
2022-08-02T08:29:44.219Z,2.03
2022-08-02T08:32:17.077Z,2.27
2022-08-02T08:34:45.153Z,2.00
2022-08-02T08:37:17.865Z,1.87
2022-08-02T08:39:56.454Z,1.90
2022-08-02T08:42:24.390Z,1.80
2022-08-02T08:44:51.571Z,1.90
2022-08-02T08:47:21.148Z,1.87
2022-08-02T08:49:53.039Z,1.87
2022-08-02T08:52:23.804Z,2.20
2022-08-02T08:54:51.363Z,2.10
2022-08-02T08:57:20.280Z,2.10
2022-08-02T08:59:46.958Z,2.07
2022-08-02T09:02:20.404Z,1.90
2022-08-02T09:04:54.433Z,2.43
2022-08-02T09:07:28.238Z,2.47
2022-08-02T09:09:55.901Z,2.60
2022-08-02T09:12:24.766Z,1.97
2022-08-02T09:14:51.468Z,2.10
2022-08-02T09:17:18.683Z,1.70
2022-08-02T09:19:47.904Z,2.03
2022-08-02T09:22:15.841Z,2.10
2022-08-02T09:24:44.800Z,2.03
2022-08-02T09:27:22.821Z,2.50
2022-08-02T09:30:13.422Z,1.87
2022-08-02T09:32:48.374Z,1.73
2022-08-02T09:36:06.795Z,1.90
2022-08-02T09:38:18.635Z,2.10
2022-08-02T09:40:45.313Z,1.47
2022-08-02T09:43:12.427Z,1.90
2022-08-02T09:45:39.073Z,1.90
2022-08-02T09:48:09.585Z,1.57
2022-08-02T09:50:37.413Z,1.43
2022-08-02T09:53:04.746Z,1.83
2022-08-02T09:55:31.333Z,2.50
2022-08-02T09:57:58.073Z,1.90
2022-08-02T10:00:43.585Z,1.73
2022-08-02T10:03:22.378Z,1.77
2022-08-02T10:05:56.126Z,1.50
2022-08-02T10:08:29.434Z,1.63
2022-08-02T10:11:03.567Z,1.60
2022-08-02T10:13:35.521Z,1.70
2022-08-02T10:16:04.443Z,1.60
2022-08-02T10:18:40.369Z,1.70
2022-08-02T10:21:13.406Z,2.00
2022-08-02T10:23:42.437Z,1.57
2022-08-02T10:26:09.601Z,1.60
2022-08-02T10:28:37.755Z,1.80
2022-08-02T10:31:07.605Z,1.60
2022-08-02T10:33:38.206Z,1.90
2022-08-02T10:36:07.383Z,1.50
2022-08-02T10:38:35.415Z,1.70
2022-08-02T10:41:01.940Z,1.30
2022-08-02T10:43:31.531Z,1.67
2022-08-02T10:46:22.700Z,1.50
2022-08-02T10:49:36.232Z,1.00
2022-08-02T10:52:01.091Z,1.50
2022-08-02T10:54:32.112Z,1.37
2022-08-02T10:57:01.513Z,1.30
2022-08-02T10:59:28.210Z,1.40
2022-08-02T11:02:02.560Z,1.70
2022-08-02T11:04:52.029Z,1.47
2022-08-02T11:07:36.540Z,1.30
2022-08-02T11:10:30.208Z,1.50
2022-08-02T11:13:15.169Z,1.50
2022-08-02T11:15:49.582Z,1.60
2022-08-02T11:18:16.743Z,1.57
2022-08-02T11:20:43.481Z,1.73
2022-08-02T11:23:44.299Z,1.37
2022-08-02T11:26:30.819Z,1.50
2022-08-02T11:29:02.566Z,1.27
2022-08-02T11:31:38.023Z,1.10
2022-08-02T11:34:09.594Z,1.27
2022-08-02T11:36:50.969Z,1.70
2022-08-02T11:39:19.938Z,1.40
2022-08-02T11:41:51.526Z,1.27
2022-08-02T11:44:19.536Z,1.40
2022-08-02T11:46:59.125Z,1.70
2022-08-02T11:49:26.231Z,1.93
2022-08-02T11:52:07.430Z,1.47
2022-08-02T11:54:36.530Z,1.57
2022-08-02T11:57:21.273Z,1.70
2022-08-02T11:59:50.119Z,1.40
2022-08-02T12:02:18.743Z,1.40
2022-08-02T12:04:53.190Z,1.33
2022-08-02T12:07:45.976Z,1.13
2022-08-02T12:10:16.931Z,1.40
2022-08-02T12:12:57.668Z,1.10
2022-08-02T12:15:31.183Z,1.03
2022-08-02T12:18:16.810Z,0.90
2022-08-02T12:20:45.391Z,1.30
2022-08-02T12:23:13.263Z,1.30
2022-08-02T12:25:39.974Z,1.30
2022-08-02T12:28:22.570Z,1.40
2022-08-02T12:31:00.646Z,1.40
2022-08-02T12:33:29.492Z,1.23
2022-08-02T12:35:56.555Z,1.20
2022-08-02T12:38:23.085Z,1.17
2022-08-02T12:40:49.658Z,1.40
2022-08-02T12:43:19.350Z,1.47
2022-08-02T12:45:50.660Z,1.10
2022-08-02T12:48:37.430Z,1.30
2022-08-02T12:51:18.670Z,1.17
2022-08-02T12:53:45.202Z,1.20
2022-08-02T12:56:11.809Z,1.07
2022-08-02T12:58:51.829Z,1.03
2022-08-02T13:01:27.697Z,1.40
2022-08-02T13:04:07.609Z,1.30
2022-08-02T13:06:43.886Z,1.00
2022-08-02T13:09:16.120Z,1.27
2022-08-02T13:11:44.106Z,1.23
2022-08-02T13:14:12.355Z,1.20
2022-08-02T13:16:38.964Z,1.20
2022-08-02T13:19:05.531Z,1.10
2022-08-02T13:21:41.071Z,1.30
2022-08-02T13:24:37.738Z,1.57
2022-08-02T13:27:08.647Z,1.30
2022-08-02T13:29:37.107Z,1.50
2022-08-02T13:32:03.803Z,1.60
2022-08-02T13:34:30.364Z,1.63
2022-08-02T13:36:56.910Z,1.57
2022-08-02T13:39:23.418Z,1.37
2022-08-02T13:41:49.978Z,2.23
2022-08-02T13:44:16.501Z,1.70
2022-08-02T13:46:45.547Z,1.20
2022-08-02T13:49:18.506Z,1.50
2022-08-02T13:51:47.002Z,1.67
2022-08-02T13:54:13.511Z,1.90
2022-08-02T13:56:40.003Z,1.80
2022-08-02T13:59:54.898Z,1.40
2022-08-02T14:01:54.273Z,1.33
2022-08-02T14:04:20.906Z,1.37
2022-08-02T14:06:47.421Z,1.60
2022-08-02T14:09:16.824Z,1.70
2022-08-02T14:11:44.270Z,1.47
2022-08-02T14:14:16.719Z,2.07
2022-08-02T14:16:45.654Z,1.77
2022-08-02T14:19:16.679Z,1.73
2022-08-02T14:21:47.951Z,1.90
2022-08-02T14:24:16.550Z,1.47
2022-08-02T14:26:43.474Z,2.00
2022-08-02T14:29:09.990Z,1.63
2022-08-02T14:31:41.640Z,1.30
2022-08-02T14:34:10.782Z,1.50
2022-08-02T14:36:38.273Z,1.70
2022-08-02T14:39:04.846Z,1.80
2022-08-02T14:41:33.968Z,1.93
2022-08-02T14:44:20.468Z,1.87
2022-08-02T14:46:47.024Z,1.70
2022-08-02T14:49:14.632Z,2.20
2022-08-02T14:51:50.768Z,1.70
2022-08-02T14:54:18.217Z,2.07
2022-08-02T14:56:45.011Z,2.00
2022-08-02T14:59:14.769Z,1.83
2022-08-02T15:01:41.831Z,1.57
2022-08-02T15:04:08.395Z,1.50
2022-08-02T15:06:34.979Z,1.90
2022-08-02T15:09:01.559Z,1.90
2022-08-02T15:11:28.239Z,1.50
2022-08-02T15:13:55.179Z,1.73
2022-08-02T15:16:47.329Z,1.83
2022-08-02T15:19:12.751Z,1.40
2022-08-02T15:21:42.137Z,1.60
2022-08-02T15:24:21.339Z,1.43
2022-08-02T15:26:50.213Z,1.70
2022-08-02T15:29:18.043Z,1.60
2022-08-02T15:31:44.620Z,1.90
2022-08-02T15:34:11.242Z,2.23
2022-08-02T15:36:38.046Z,1.97
2022-08-02T15:39:04.749Z,1.77
2022-08-02T15:41:31.648Z,1.83
2022-08-02T15:44:00.794Z,1.87
2022-08-02T15:46:31.097Z,1.53
2022-08-02T15:48:59.656Z,2.80
2022-08-02T15:51:26.773Z,3.23
2022-08-02T15:53:53.272Z,3.37
2022-08-02T15:56:22.032Z,2.53
2022-08-02T15:58:53.031Z,2.00
2022-08-02T16:01:25.817Z,1.80
2022-08-02T16:04:04.740Z,1.80
2022-08-02T16:06:31.248Z,1.60
2022-08-02T16:08:57.782Z,1.70
2022-08-02T16:11:24.297Z,2.00
2022-08-02T16:13:53.339Z,1.70
2022-08-02T16:16:22.330Z,1.80
2022-08-02T16:18:48.912Z,1.93
2022-08-02T16:21:15.491Z,1.73
2022-08-02T16:23:59.243Z,1.90
2022-08-02T16:26:30.574Z,1.87
2022-08-02T16:28:59.495Z,2.10
2022-08-02T16:31:26.209Z,1.80
2022-08-02T16:33:56.739Z,1.80
2022-08-02T16:36:24.297Z,1.80
2022-08-02T16:38:50.887Z,1.83
2022-08-02T16:41:17.405Z,1.97
2022-08-02T16:43:43.932Z,2.30
2022-08-02T16:46:10.454Z,2.20
2022-08-02T16:48:37.335Z,1.70
2022-08-02T16:51:04.608Z,1.83
2022-08-02T16:53:37.066Z,1.90
2022-08-02T16:56:05.080Z,1.90
2022-08-02T16:58:31.627Z,1.80
2022-08-02T17:00:58.218Z,1.90
2022-08-02T17:03:24.773Z,2.00
2022-08-02T17:06:11.238Z,2.00
2022-08-02T17:08:54.529Z,2.00
2022-08-02T17:11:21.513Z,1.97
2022-08-02T17:13:50.965Z,1.93
2022-08-02T17:16:20.434Z,1.63
2022-08-02T17:18:53.172Z,2.00
2022-08-02T17:21:19.945Z,2.07
2022-08-02T17:24:06.073Z,2.23
2022-08-02T17:26:33.266Z,1.80
2022-08-02T17:29:17.735Z,2.10
2022-08-02T17:32:12.410Z,1.67
2022-08-02T17:34:36.760Z,2.17
2022-08-02T17:37:05.618Z,1.97
2022-08-02T17:39:34.514Z,2.10
2022-08-02T17:42:10.884Z,1.77
2022-08-02T17:44:42.147Z,2.40
2022-08-02T17:47:15.609Z,2.10
2022-08-02T17:49:48.438Z,2.00
2022-08-02T17:52:50.790Z,2.30
2022-08-02T17:55:03.760Z,2.20
2022-08-02T17:57:57.792Z,2.03
2022-08-02T18:00:17.743Z,2.13
2022-08-02T18:02:52.901Z,2.30
2022-08-02T18:05:39.686Z,2.40
2022-08-02T18:08:13.207Z,2.00
2022-08-02T18:10:40.797Z,2.37
2022-08-02T18:13:07.300Z,2.47
2022-08-02T18:15:34.270Z,2.47
2022-08-02T18:18:00.950Z,2.30
2022-08-02T18:20:27.509Z,2.30
2022-08-02T18:22:58.331Z,2.30
2022-08-02T18:25:37.527Z,2.50
2022-08-02T18:28:12.597Z,2.40
2022-08-02T18:30:39.473Z,2.20
2022-08-02T18:33:59.213Z,2.50
2022-08-02T18:35:55.340Z,2.43
2022-08-02T18:38:22.765Z,2.50
2022-08-02T18:40:51.201Z,2.60
2022-08-02T18:43:18.809Z,2.33
2022-08-02T18:46:05.671Z,2.67
2022-08-02T18:48:35.463Z,2.93
2022-08-02T18:51:02.897Z,2.67
2022-08-02T18:53:41.545Z,2.50
2022-08-02T18:56:19.582Z,3.30
2022-08-02T18:58:51.883Z,3.17
2022-08-02T19:01:31.667Z,3.10
2022-08-02T19:04:01.390Z,3.20
2022-08-02T19:06:29.080Z,3.10
2022-08-02T19:09:05.098Z,3.37
2022-08-02T19:11:37.172Z,3.50
2022-08-02T19:14:03.748Z,3.13
2022-08-02T19:16:36.712Z,2.80
2022-08-02T19:19:05.085Z,3.00
2022-08-02T19:22:17.354Z,2.97
2022-08-02T19:24:18.370Z,3.00
2022-08-02T19:29:48.160Z,2.60
2022-08-02T19:32:39.847Z,2.70
2022-08-02T19:35:19.815Z,3.10
2022-08-02T19:40:42.273Z,5.53
2022-08-02T19:44:25.847Z,12.10
2022-08-02T19:45:58.460Z,15.13
2022-08-02T19:48:26.775Z,16.37
2022-08-02T19:50:56.134Z,17.07
2022-08-02T19:53:48.538Z,12.20
2022-08-02T19:56:20.625Z,10.13
2022-08-02T19:58:49.419Z,7.87
2022-08-02T20:01:17.307Z,7.00
2022-08-02T20:03:51.097Z,5.87
2022-08-02T20:06:19.754Z,4.63
2022-08-02T20:08:57.083Z,4.27
2022-08-02T20:11:25.437Z,3.73
2022-08-02T20:13:53.457Z,3.63
2022-08-02T20:16:27.400Z,3.73
2022-08-02T20:18:55.238Z,3.77
2022-08-02T20:21:35.919Z,3.40
2022-08-02T20:24:07.740Z,3.53
2022-08-02T20:26:35.146Z,3.70
2022-08-02T20:29:03.366Z,3.13
2022-08-02T20:31:30.384Z,3.60
2022-08-02T20:33:57.510Z,3.53
2022-08-02T20:36:25.728Z,3.53
2022-08-02T20:38:54.520Z,3.70
2022-08-02T20:41:22.255Z,3.80
2022-08-02T20:43:49.736Z,3.90
2022-08-02T20:46:16.431Z,4.07
2022-08-02T20:48:44.235Z,3.87
2022-08-02T20:51:14.143Z,4.07
2022-08-02T20:53:54.860Z,4.00
2022-08-02T20:56:23.138Z,3.90
2022-08-02T20:58:52.389Z,4.13
2022-08-02T21:01:21.196Z,3.90
2022-08-02T21:03:53.002Z,4.00
2022-08-02T21:06:29.883Z,4.07
2022-08-02T21:08:58.726Z,4.10
2022-08-02T21:11:33.763Z,4.17
2022-08-02T21:14:06.938Z,4.30
2022-08-02T21:16:36.163Z,4.30
2022-08-02T21:19:02.923Z,4.00
2022-08-02T21:21:34.727Z,3.90
2022-08-02T21:24:01.810Z,4.40
2022-08-02T21:26:30.610Z,4.13
2022-08-02T21:29:03.299Z,3.70
2022-08-02T21:31:32.084Z,3.97
2022-08-02T21:34:00.847Z,4.20
2022-08-02T21:36:33.842Z,4.20
2022-08-02T21:39:08.983Z,4.23
2022-08-02T21:41:39.208Z,4.07
2022-08-02T21:44:15.991Z,4.50
2022-08-02T21:46:44.578Z,4.83
2022-08-02T21:49:12.534Z,4.40
2022-08-02T21:51:40.255Z,4.33
2022-08-02T21:54:17.508Z,4.60
2022-08-02T21:56:45.939Z,4.17
2022-08-02T21:59:16.249Z,4.20
2022-08-02T22:01:52.317Z,4.40
2022-08-02T22:04:20.522Z,4.50
2022-08-02T22:06:49.146Z,4.80
2022-08-02T22:09:43.228Z,4.37
2022-08-02T22:12:10.073Z,4.33
2022-08-02T22:14:39.868Z,4.50
2022-08-02T22:19:54.692Z,4.27
2022-08-02T22:22:28.403Z,4.20
2022-08-02T22:24:56.791Z,4.20
2022-08-02T22:27:24.196Z,4.90
2022-08-02T22:30:11.248Z,4.40
2022-08-02T22:32:56.354Z,4.50
2022-08-02T22:35:22.991Z,4.77
2022-08-02T22:38:16.956Z,5.03
2022-08-02T22:40:36.081Z,4.47
2022-08-02T22:43:02.611Z,5.00
2022-08-02T22:45:29.400Z,5.10
2022-08-02T22:47:58.690Z,4.53
2022-08-02T22:50:27.033Z,5.27
2022-08-02T22:52:54.037Z,4.80
2022-08-02T22:55:21.481Z,5.30
2022-08-02T22:57:50.597Z,5.13
2022-08-02T22:58:48.002Z,3.30
2022-08-02T22:59:04.484Z,4.10
2022-08-02T22:59:06.568Z,3.40
2022-08-02T23:00:24.230Z,5.20
2022-08-02T23:02:50.977Z,4.63
2022-08-02T23:05:18.205Z,5.03
2022-08-02T23:07:44.692Z,5.33
2022-08-02T23:10:11.226Z,4.83
2022-08-02T23:12:37.773Z,5.00
2022-08-02T23:15:04.765Z,5.07
2022-08-02T23:17:49.635Z,5.13
2022-08-02T23:20:19.746Z,4.90
2022-08-02T23:22:46.271Z,4.80
2022-08-02T23:25:12.784Z,5.10
2022-08-02T23:27:39.534Z,5.13
2022-08-02T23:30:16.952Z,4.97
2022-08-02T23:32:43.454Z,4.87
2022-08-02T23:35:10.175Z,5.17
2022-08-02T23:37:59.943Z,5.20
2022-08-02T23:40:40.482Z,4.60
2022-08-02T23:43:13.866Z,5.40
2022-08-02T23:45:44.390Z,4.90
2022-08-02T23:48:10.910Z,5.33
2022-08-02T23:50:37.470Z,4.93
2022-08-02T23:53:03.985Z,4.97
2022-08-02T23:55:30.538Z,5.47
2022-08-02T23:57:57.038Z,5.60
